Observation data for Sundown on 10/13/2019      Previous  Date       Current Mesonet Observations  Soil Data  Daily Summary Page  Observations in Plain Language
KSDS 130500Z 19010KT 09/01 A3001 RMK A01 T00940005  RH  055%=      5-min Rain = 0
KSDS 130505Z 19009KT 10/01 A3001 RMK A01 T00960005  RH  054%=      5-min Rain = 0
KSDS 130510Z 19010KT 10/00 A3001 RMK A01 T00970004  RH  053%=      5-min Rain = 0
KSDS 130515Z 19009KT 10/00 A30 RMK A01 T00960004  RH  053%=      5-min Rain = 0
KSDS 130520Z 19009KT 09/00 A30 RMK A01 T00940004  RH  054%=      5-min Rain = 0
KSDS 130525Z 20008KT 09/00 A3001 RMK A01 T00930004  RH  054%=      5-min Rain = 0
KSDS 130530Z 21008KT 09/00 A3001 RMK A01 T00940004  RH  054%=      5-min Rain = 0
KSDS 130535Z 21008KT 10/00 A3001 RMK A01 T00950003  RH  053%=      5-min Rain = 0
KSDS 130540Z 21009KT 10/00 A30 RMK A01 T00970003  RH  053%=      5-min Rain = 0
KSDS 130545Z 21009KT 10/00 A3001 RMK A01 T00980003  RH  052%=      5-min Rain = 0
KSDS 130550Z 22009KT 10/00 A3001 RMK A01 T00960003  RH  053%=      5-min Rain = 0
KSDS 130555Z 21009KT 10/00 A3001 RMK A01 T00970002  RH  052%=      5-min Rain = 0
KSDS 130600Z 21009KT 10/00 A3001 RMK A01 T00970001  RH  052%=      5-min Rain = 0
KSDS 130605Z 21009KT 10/00 A3001 RMK A01 T009700-0  RH  051%=      5-min Rain = 0
KSDS 130610Z 21008KT 10/00 A30 RMK A01 T009500-0  RH  052%=      5-min Rain = 0
KSDS 130615Z 22007KT 09/00 A30 RMK A01 T009200-0  RH  053%=      5-min Rain = 0
KSDS 130620Z 21007KT 09/00 A30 RMK A01 T00850001  RH  056%=      5-min Rain = 0
KSDS 130625Z 21008KT 08/00 A30 RMK A01 T00810002  RH  058%=      5-min Rain = 0
KSDS 130630Z 21008KT 08/00 A30 RMK A01 T00770002  RH  060%=      5-min Rain = 0
KSDS 130635Z 22008KT 08/00 A30 RMK A01 T00750003  RH  061%=      5-min Rain = 0
KSDS 130640Z 22008KT 08/00 A30 RMK A01 T00760002  RH  060%=      5-min Rain = 0
KSDS 130645Z 22008KT 08/00 A30 RMK A01 T00760002  RH  060%=      5-min Rain = 0
KSDS 130650Z 22008KT 08/00 A2999 RMK A01 T00750001  RH  060%=      5-min Rain = 0
KSDS 130655Z 22009KT 08/00 A2999 RMK A01 T00760001  RH  059%=      5-min Rain = 0
KSDS 130700Z 22009KT 08/00 A2999 RMK A01 T00780000  RH  059%=      5-min Rain = 0
KSDS 130705Z 23007KT 08/00 A30 RMK A01 T007800-0  RH  058%=      5-min Rain = 0
KSDS 130710Z 23007KT 08/00 A30 RMK A01 T007800-0  RH  058%=      5-min Rain = 0
KSDS 130715Z 22008KT 08/00 A2999 RMK A01 T007500-0  RH  059%=      5-min Rain = 0
KSDS 130720Z 22008KT 07/00 A2999 RMK A01 T007300-0  RH  060%=      5-min Rain = 0
KSDS 130725Z 23008KT 07/00 A2999 RMK A01 T00730000  RH  061%=      5-min Rain = 0
KSDS 130730Z 23008KT 07/00 A2999 RMK A01 T00730000  RH  061%=      5-min Rain = 0
KSDS 130735Z 23008KT 07/00 A2999 RMK A01 T00720001  RH  061%=      5-min Rain = 0
KSDS 130740Z 23008KT 07/00 A2999 RMK A01 T00730001  RH  061%=      5-min Rain = 0
KSDS 130745Z 23008KT 07/00 A2999 RMK A01 T00740001  RH  061%=      5-min Rain = 0
KSDS 130750Z 23008KT 08/00 A2999 RMK A01 T00760001  RH  060%=      5-min Rain = 0
KSDS 130755Z 24008KT 08/00 A2999 RMK A01 T00770001  RH  059%=      5-min Rain = 0
KSDS 130800Z 24008KT 08/00 A2999 RMK A01 T00770001  RH  059%=      5-min Rain = 0
KSDS 130805Z 23008KT 08/00 A2999 RMK A01 T00760001  RH  060%=      5-min Rain = 0
KSDS 130810Z 23009KT 08/00 A2999 RMK A01 T00760001  RH  060%=      5-min Rain = 0
KSDS 130815Z 23009KT 08/00 A2999 RMK A01 T00750001  RH  060%=      5-min Rain = 0
KSDS 130820Z 23010KT 08/00 A2999 RMK A01 T00750001  RH  060%=      5-min Rain = 0
KSDS 130825Z 23009KT 08/00 A2999 RMK A01 T00760001  RH  060%=      5-min Rain = 0
KSDS 130830Z 23009KT 08/00 A2998 RMK A01 T00780000  RH  059%=      5-min Rain = 0
KSDS 130835Z 23010KT 08/00 A2998 RMK A01 T007800-0  RH  058%=      5-min Rain = 0
KSDS 130840Z 24010KT 08/M00 A2998 RMK A01 T00791001  RH  058%=      5-min Rain = 0
KSDS 130845Z 23010KT 08/M00 A2998 RMK A01 T00771001  RH  059%=      5-min Rain = 0
KSDS 130850Z 23009KT 08/M00 A2997 RMK A01 T00751001  RH  059%=      5-min Rain = 0
KSDS 130855Z 24010KT 07/00 A2997 RMK A01 T007400-0  RH  060%=      5-min Rain = 0
KSDS 130900Z 23010KT 07/00 A2997 RMK A01 T00740000  RH  060%=      5-min Rain = 0
KSDS 130905Z 24011KT 08/00 A2997 RMK A01 T00760000  RH  059%=      5-min Rain = 0
KSDS 130910Z 23011KT 08/00 A2997 RMK A01 T00760000  RH  059%=      5-min Rain = 0
KSDS 130915Z 23011KT 08/00 A2996 RMK A01 T00770000  RH  059%=      5-min Rain = 0
KSDS 130920Z 22010KT 08/00 A2996 RMK A01 T007700-0  RH  059%=      5-min Rain = 0
KSDS 130925Z 22010KT 08/00 A2996 RMK A01 T007600-0  RH  059%=      5-min Rain = 0
KSDS 130930Z 23010KT 08/M00 A2996 RMK A01 T00771001  RH  058%=      5-min Rain = 0
KSDS 130935Z 24010KT 08/M00 A2996 RMK A01 T00761001  RH  059%=      5-min Rain = 0
KSDS 130940Z 24009KT 08/M00 A2997 RMK A01 T00761001  RH  059%=      5-min Rain = 0
KSDS 130945Z 25009KT 07/M00 A2997 RMK A01 T00721001  RH  061%=      5-min Rain = 0
KSDS 130950Z 24008KT 07/M00 A2997 RMK A01 T00691001  RH  062%=      5-min Rain = 0
KSDS 130955Z 24008KT 07/M00 A2997 RMK A01 T00661001  RH  063%=      5-min Rain = 0
KSDS 131000Z 24009KT 06/M00 A2997 RMK A01 T00641001  RH  064%=      5-min Rain = 0
KSDS 131005Z 24009KT 06/M00 A2997 RMK A01 T00641001  RH  064%=      5-min Rain = 0
KSDS 131010Z 24009KT 06/M00 A2996 RMK A01 T00631001  RH  064%=      5-min Rain = 0
KSDS 131015Z 24009KT 06/M00 A2996 RMK A01 T00641001  RH  064%=      5-min Rain = 0
KSDS 131020Z 24009KT 06/M00 A2996 RMK A01 T00641001  RH  064%=      5-min Rain = 0
KSDS 131025Z 24009KT 06/M00 A2997 RMK A01 T00631001  RH  064%=      5-min Rain = 0
KSDS 131030Z 24009KT 07/00 A2996 RMK A01 T006500-0  RH  064%=      5-min Rain = 0
KSDS 131035Z 24010KT 07/00 A2996 RMK A01 T00690000  RH  062%=      5-min Rain = 0
KSDS 131040Z 24009KT 07/00 A2996 RMK A01 T00700000  RH  062%=      5-min Rain = 0
KSDS 131045Z 24009KT 07/00 A2996 RMK A01 T00690001  RH  063%=      5-min Rain = 0
KSDS 131050Z 25009KT 07/00 A2996 RMK A01 T00700002  RH  063%=      5-min Rain = 0
KSDS 131055Z 27007KT 07/00 A2996 RMK A01 T00670002  RH  064%=      5-min Rain = 0
KSDS 131100Z 27006KT 06/00 A2997 RMK A01 T00620002  RH  066%=      5-min Rain = 0
KSDS 131105Z 29007KT 06/00 A2997 RMK A01 T00580002  RH  068%=      5-min Rain = 0
KSDS 131110Z 29006KT 06/00 A2997 RMK A01 T00550003  RH  070%=      5-min Rain = 0
KSDS 131115Z 26007KT 05/00 A2997 RMK A01 T00530003  RH  071%=      5-min Rain = 0
KSDS 131120Z 27006KT 05/00 A2997 RMK A01 T00520003  RH  072%=      5-min Rain = 0
KSDS 131125Z 27007KT 05/00 A2997 RMK A01 T00510003  RH  072%=      5-min Rain = 0
KSDS 131130Z 27008KT 05/00 A2997 RMK A01 T00510003  RH  072%=      5-min Rain = 0
KSDS 131135Z 25009KT 06/01 A2997 RMK A01 T00560005  RH  070%=      5-min Rain = 0
KSDS 131140Z 25009KT 06/01 A2997 RMK A01 T00620006  RH  068%=      5-min Rain = 0
KSDS 131145Z 25008KT 07/01 A2997 RMK A01 T00720008  RH  064%=      5-min Rain = 0
KSDS 131150Z 26008KT 08/01 A2998 RMK A01 T00770007  RH  062%=      5-min Rain = 0
KSDS 131155Z 26008KT 08/01 A2998 RMK A01 T00770007  RH  062%=      5-min Rain = 0
KSDS 131200Z 26007KT 07/01 A2998 RMK A01 T00740007  RH  063%=      5-min Rain = 0
KSDS 131205Z 26007KT 07/01 A2998 RMK A01 T00710007  RH  065%=      5-min Rain = 0
KSDS 131210Z 26007KT 07/01 A2998 RMK A01 T00680008  RH  066%=      5-min Rain = 0
KSDS 131215Z 26006KT 07/01 A2998 RMK A01 T00650008  RH  068%=      5-min Rain = 0
KSDS 131220Z 26006KT 06/01 A2998 RMK A01 T00630008  RH  069%=      5-min Rain = 0
KSDS 131225Z 26007KT 06/01 A2998 RMK A01 T00620009  RH  070%=      5-min Rain = 0
KSDS 131230Z 27007KT 06/01 A2998 RMK A01 T00610009  RH  070%=      5-min Rain = 0
KSDS 131235Z 27007KT 06/01 A2998 RMK A01 T00610011  RH  071%=      5-min Rain = 0
KSDS 131240Z 28006KT 06/01 A2998 RMK A01 T00600012  RH  072%=      5-min Rain = 0
KSDS 131245Z 28006KT 06/01 A2998 RMK A01 T00590012  RH  073%=      5-min Rain = 0
KSDS 131250Z 28007KT 06/01 A2998 RMK A01 T00570013  RH  074%=      5-min Rain = 0
KSDS 131255Z 28007KT 06/02 A2998 RMK A01 T00580015  RH  075%=      5-min Rain = 0
KSDS 131300Z 29007KT 06/02 A2998 RMK A01 T00600017  RH  075%=      5-min Rain = 0
KSDS 131305Z 27006KT 06/02 A2998 RMK A01 T00640021  RH  075%=      5-min Rain = 0
KSDS 131310Z 27005KT 07/02 A2998 RMK A01 T00700024  RH  073%=      5-min Rain = 0
KSDS 131315Z 27005KT 07/02 A2998 RMK A01 T00740024  RH  072%=      5-min Rain = 0
KSDS 131320Z 27006KT 08/03 A2998 RMK A01 T00780025  RH  070%=      5-min Rain = 0
KSDS 131325Z 27006KT 08/03 A2998 RMK A01 T00830026  RH  069%=      5-min Rain = 0
KSDS 131330Z 29007KT 09/03 A2999 RMK A01 T00870028  RH  068%=      5-min Rain = 0
KSDS 131335Z 29006KT 09/03 A2999 RMK A01 T00890028  RH  067%=      5-min Rain = 0
KSDS 131340Z 29008KT 09/03 A2999 RMK A01 T00930029  RH  066%=      5-min Rain = 0
KSDS 131345Z 30007KT 10/03 A2999 RMK A01 T00990030  RH  063%=      5-min Rain = 0
KSDS 131350Z 28008KT 11/03 A2999 RMK A01 T01060032  RH  061%=      5-min Rain = 0
KSDS 131355Z 29009KT 12/03 A2999 RMK A01 T01160032  RH  058%=      5-min Rain = 0
KSDS 131400Z 29009KT 13/03 A2999 RMK A01 T01260033  RH  054%=      5-min Rain = 0
KSDS 131405Z 29008KT 13/03 A30 RMK A01 T01330033  RH  052%=      5-min Rain = 0
KSDS 131410Z 29009KT 14/03 A30 RMK A01 T01400034  RH  050%=      5-min Rain = 0
KSDS 131415Z 29007KT 15/04 A30 RMK A01 T01470035  RH  048%=      5-min Rain = 0
KSDS 131420Z 30007KT 15/04 A3001 RMK A01 T01530035  RH  046%=      5-min Rain = 0
KSDS 131425Z 29006KT 16/04 A3001 RMK A01 T01590036  RH  044%=      5-min Rain = 0
KSDS 131430Z 29009KT 17/03 A3001 RMK A01 T01650034  RH  042%=      5-min Rain = 0
KSDS 131435Z 30009KT 17/03 A3001 RMK A01 T01700034  RH  041%=      5-min Rain = 0
KSDS 131440Z 29008G14KT 18/04 A3001 RMK A01 T01770036  RH  040%=      5-min Rain = 0
KSDS 131445Z 29010G15KT 18/03 A3001 RMK A01 T01820034  RH  038%=      5-min Rain = 0
KSDS 131450Z 28010KT 19/03 A3001 RMK A01 T01860034  RH  037%=      5-min Rain = 0
KSDS 131455Z 28011KT 19/03 A3001 RMK A01 T01920034  RH  036%=      5-min Rain = 0
KSDS 131500Z 29011G17KT 20/03 A3001 RMK A01 T01990034  RH  034%=      5-min Rain = 0
KSDS 131505Z 29014KT 20/03 A3002 RMK A01 T02030029  RH  032%=      5-min Rain = 0
KSDS 131510Z 29014G19KT 21/03 A3002 RMK A01 T02070029  RH  031%=      5-min Rain = 0
KSDS 131515Z 28014G19KT 21/03 A3001 RMK A01 T02090027  RH  031%=      5-min Rain = 0
KSDS 131520Z 28013KT 21/03 A3001 RMK A01 T02130028  RH  030%=      5-min Rain = 0
KSDS 131525Z 28013KT 22/03 A3001 RMK A01 T02170029  RH  029%=      5-min Rain = 0
KSDS 131530Z 29014KT 22/03 A3001 RMK A01 T02190026  RH  028%=      5-min Rain = 0
KSDS 131535Z 29012KT 22/03 A3001 RMK A01 T02240027  RH  028%=      5-min Rain = 0
KSDS 131540Z 29013G18KT 23/03 A3002 RMK A01 T02260026  RH  027%=      5-min Rain = 0
KSDS 131545Z 28012KT 23/02 A3002 RMK A01 T02270024  RH  027%=      5-min Rain = 0
KSDS 131550Z 28013KT 23/03 A3002 RMK A01 T02270025  RH  027%=      5-min Rain = 0
KSDS 131555Z 29013KT 23/03 A3002 RMK A01 T02280025  RH  027%=      5-min Rain = 0
KSDS 131600Z 30012KT 23/03 A3002 RMK A01 T02310027  RH  027%=      5-min Rain = 0
KSDS 131605Z 29011KT 23/03 A3002 RMK A01 T02320029  RH  027%=      5-min Rain = 0
KSDS 131610Z 30011G16KT 23/03 A3002 RMK A01 T02340028  RH  026%=      5-min Rain = 0
KSDS 131615Z 30012KT 24/03 A3002 RMK A01 T02370030  RH  026%=      5-min Rain = 0
KSDS 131620Z 29011KT 24/03 A3002 RMK A01 T02360032  RH  027%=      5-min Rain = 0
KSDS 131625Z 30012KT 24/03 A3002 RMK A01 T02370030  RH  026%=      5-min Rain = 0
KSDS 131630Z 30010KT 24/03 A3002 RMK A01 T02390031  RH  026%=      5-min Rain = 0
KSDS 131635Z 30012KT 24/03 A3002 RMK A01 T02390029  RH  026%=      5-min Rain = 0
KSDS 131640Z 30011KT 24/03 A3002 RMK A01 T02410031  RH  026%=      5-min Rain = 0
KSDS 131645Z 29010KT 24/03 A3002 RMK A01 T02430031  RH  026%=      5-min Rain = 0
KSDS 131650Z 29009KT 25/03 A3002 RMK A01 T02450033  RH  026%=      5-min Rain = 0
KSDS 131655Z 29009KT 25/03 A3002 RMK A01 T02470033  RH  025%=      5-min Rain = 0
KSDS 131700Z 29010KT 25/03 A3002 RMK A01 T02490031  RH  025%=      5-min Rain = 0
KSDS 131705Z 31011KT 25/03 A3002 RMK A01 T02520026  RH  023%=      5-min Rain = 0
KSDS 131710Z 30010KT 26/03 A3002 RMK A01 T02560025  RH  023%=      5-min Rain = 0
KSDS 131715Z 31010KT 26/03 A3002 RMK A01 T02600026  RH  022%=      5-min Rain = 0
KSDS 131720Z 28008G13KT 26/03 A3002 RMK A01 T02590025  RH  022%=      5-min Rain = 0
KSDS 131725Z 30010G16KT 26/02 A3002 RMK A01 T02630019  RH  021%=      5-min Rain = 0
KSDS 131730Z 30009G14KT 27/02 A3002 RMK A01 T02650020  RH  021%=      5-min Rain = 0
KSDS 131735Z 30010KT 26/01 A3002 RMK A01 T02630012  RH  020%=      5-min Rain = 0
KSDS 131740Z 29010G16KT 27/01 A3001 RMK A01 T02660014  RH  020%=      5-min Rain = 0
KSDS 131745Z 29009KT 27/01 A3001 RMK A01 T02700013  RH  019%=      5-min Rain = 0
KSDS 131750Z 30009KT 27/01 A3001 RMK A01 T02730009  RH  018%=      5-min Rain = 0
KSDS 131755Z 31011G17KT 27/00 A3001 RMK A01 T02700002  RH  018%=      5-min Rain = 0
KSDS 131800Z 31010G15KT 27/01 A3001 RMK A01 T02720005  RH  018%=      5-min Rain = 0
KSDS 131805Z 32012G19KT 28/00 A3001 RMK A01 T02760002  RH  017%=      5-min Rain = 0
KSDS 131810Z 32010G15KT 27/M00 A3001 RMK A01 T02741002  RH  017%=      5-min Rain = 0
KSDS 131815Z 31011KT 28/00 A30 RMK A01 T027700-0  RH  017%=      5-min Rain = 0
KSDS 131820Z 33009G15KT 28/00 A30 RMK A01 T02780000  RH  017%=      5-min Rain = 0
KSDS 131825Z 30011G16KT 28/00 A30 RMK A01 T02770002  RH  017%=      5-min Rain = 0
KSDS 131830Z 32013G19KT 28/M00 A30 RMK A01 T02801001  RH  016%=      5-min Rain = 0
KSDS 131835Z 30010KT 28/M00 A30 RMK A01 T02761003  RH  016%=      5-min Rain = 0
KSDS 131840Z 28010KT 28/M00 A2999 RMK A01 T02791004  RH  016%=      5-min Rain = 0
KSDS 131845Z 27011G16KT 28/M01 A2999 RMK A01 T02821006  RH  015%=      5-min Rain = 0
KSDS 131850Z 29009G14KT 28/M01 A2999 RMK A01 T02811005  RH  016%=      5-min Rain = 0
KSDS 131855Z 29013G20KT 28/M01 A2999 RMK A01 T02841006  RH  015%=      5-min Rain = 0
KSDS 131900Z 27009G15KT 28/M01 A2999 RMK A01 T02821009  RH  015%=      5-min Rain = 0
KSDS 131905Z 29008G13KT 28/M01 A2998 RMK A01 T02791009  RH  015%=      5-min Rain = 0
KSDS 131910Z 30011G16KT 29/M01 A2998 RMK A01 T02851005  RH  015%=      5-min Rain = 0
KSDS 131915Z 29009KT 29/M00 A2998 RMK A01 T02871004  RH  015%=      5-min Rain = 0
KSDS 131920Z 29009G14KT 29/M01 A2998 RMK A01 T02851007  RH  015%=      5-min Rain = 0
KSDS 131925Z 29016G21KT 29/M01 A2997 RMK A01 T02861009  RH  015%=      5-min Rain = 0
KSDS 131930Z 27011G17KT 28/M01 A2997 RMK A01 T02841010  RH  015%=      5-min Rain = 0
KSDS 131935Z 28011G19KT 29/M01 A2997 RMK A01 T02851010  RH  015%=      5-min Rain = 0
KSDS 131940Z 29011G16KT 28/M01 A2997 RMK A01 T02841009  RH  015%=      5-min Rain = 0
KSDS 131945Z 27011G17KT 29/M01 A2997 RMK A01 T02871011  RH  015%=      5-min Rain = 0
KSDS 131950Z 27009G14KT 29/M01 A2997 RMK A01 T02861014  RH  014%=      5-min Rain = 0
KSDS 131955Z 30010G16KT 29/M01 A2996 RMK A01 T02881013  RH  014%=      5-min Rain = 0
KSDS 132000Z 31010G15KT 29/M02 A2996 RMK A01 T02861016  RH  014%=      5-min Rain = 0
KSDS 132005Z 27009G15KT 29/M01 A2996 RMK A01 T02901012  RH  014%=      5-min Rain = 0
KSDS 132010Z 27011G16KT 29/M01 A2996 RMK A01 T02921014  RH  014%=      5-min Rain = 0
KSDS 132015Z 26010G19KT 29/M02 A2996 RMK A01 T02901015  RH  014%=      5-min Rain = 0
KSDS 132020Z 25009G15KT 29/M02 A2995 RMK A01 T02921018  RH  013%=      5-min Rain = 0
KSDS 132025Z 24012G18KT 29/M03 A2995 RMK A01 T02891026  RH  013%=      5-min Rain = 0
KSDS 132030Z 23013G20KT 29/M02 A2995 RMK A01 T02891016  RH  014%=      5-min Rain = 0
KSDS 132035Z 27009G14KT 29/M03 A2995 RMK A01 T02901027  RH  013%=      5-min Rain = 0
KSDS 132040Z 26008G14KT 29/M03 A2995 RMK A01 T02871033  RH  012%=      5-min Rain = 0
KSDS 132045Z 28009G15KT 29/M02 A2995 RMK A01 T02911021  RH  013%=      5-min Rain = 0
KSDS 132050Z 24014G19KT 29/M02 A2995 RMK A01 T02911024  RH  013%=      5-min Rain = 0
KSDS 132055Z 22011KT 29/M03 A2995 RMK A01 T02891025  RH  013%=      5-min Rain = 0
KSDS 132100Z 23012G19KT 29/M02 A2995 RMK A01 T02891022  RH  013%=      5-min Rain = 0
KSDS 132105Z 22010KT 29/M02 A2995 RMK A01 T02891023  RH  013%=      5-min Rain = 0
KSDS 132110Z 23013G22KT 29/M02 A2995 RMK A01 T02881020  RH  013%=      5-min Rain = 0
KSDS 132115Z 24012G20KT 29/M02 A2995 RMK A01 T02861024  RH  013%=      5-min Rain = 0
KSDS 132120Z 23010G15KT 29/M02 A2995 RMK A01 T02861023  RH  013%=      5-min Rain = 0
KSDS 132125Z 25011G19KT 29/M02 A2995 RMK A01 T02881021  RH  013%=      5-min Rain = 0
KSDS 132130Z 26011G18KT 29/M03 A2995 RMK A01 T02861025  RH  013%=      5-min Rain = 0
KSDS 132135Z 24012G17KT 29/M03 A2995 RMK A01 T02851027  RH  013%=      5-min Rain = 0
KSDS 132140Z 22011G16KT 29/M03 A2995 RMK A01 T02881030  RH  012%=      5-min Rain = 0
KSDS 132145Z 22010KT 29/M03 A2995 RMK A01 T02871028  RH  013%=      5-min Rain = 0
KSDS 132150Z 25008G15KT 29/M03 A2995 RMK A01 T02881026  RH  013%=      5-min Rain = 0
KSDS 132155Z 24010G16KT 29/M03 A2995 RMK A01 T02851034  RH  012%=      5-min Rain = 0
KSDS 132200Z 22009G15KT 28/M03 A2995 RMK A01 T02831027  RH  013%=      5-min Rain = 0
KSDS 132205Z 23011G17KT 28/M02 A2995 RMK A01 T02841024  RH  013%=      5-min Rain = 0
KSDS 132210Z 25014KT 28/M03 A2995 RMK A01 T02831026  RH  013%=      5-min Rain = 0
KSDS 132215Z 25012KT 28/M03 A2995 RMK A01 T02811029  RH  013%=      5-min Rain = 0
KSDS 132220Z 24006G13KT 28/M03 A2995 RMK A01 T02811030  RH  013%=      5-min Rain = 0
KSDS 132225Z 24010G18KT 28/M03 A2995 RMK A01 T02811034  RH  013%=      5-min Rain = 0
KSDS 132230Z 24009G19KT 28/M03 A2996 RMK A01 T02821033  RH  013%=      5-min Rain = 0
KSDS 132235Z 22011G16KT 28/M04 A2996 RMK A01 T02791036  RH  013%=      5-min Rain = 0
KSDS 132240Z 22010KT 28/M04 A2996 RMK A01 T02771039  RH  012%=      5-min Rain = 0
KSDS 132245Z 25008G14KT 28/M04 A2996 RMK A01 T02751039  RH  013%=      5-min Rain = 0
KSDS 132250Z 24009KT 28/M05 A2996 RMK A01 T02761045  RH  012%=      5-min Rain = 0
KSDS 132255Z 24009KT 28/M04 A2996 RMK A01 T02761043  RH  012%=      5-min Rain = 0
KSDS 132300Z 26008KT 28/M04 A2996 RMK A01 T02751040  RH  013%=      5-min Rain = 0
KSDS 132305Z 24011KT 27/M04 A2996 RMK A01 T02731041  RH  013%=      5-min Rain = 0
KSDS 132310Z 23010KT 27/M04 A2996 RMK A01 T02721042  RH  012%=      5-min Rain = 0
KSDS 132315Z 24011KT 27/M05 A2996 RMK A01 T02711045  RH  012%=      5-min Rain = 0
KSDS 132320Z 24010KT 27/M04 A2996 RMK A01 T02691044  RH  012%=      5-min Rain = 0
KSDS 132325Z 24008KT 27/M05 A2997 RMK A01 T02671046  RH  013%=      5-min Rain = 0
KSDS 132330Z 23010KT 26/M05 A2997 RMK A01 T02631046  RH  013%=      5-min Rain = 0
KSDS 132335Z 23010KT 26/M05 A2997 RMK A01 T02621049  RH  013%=      5-min Rain = 0
KSDS 132340Z 23009KT 26/M04 A2997 RMK A01 T02571044  RH  013%=      5-min Rain = 0
KSDS 132345Z 23008KT 25/M04 A2997 RMK A01 T02501043  RH  014%=      5-min Rain = 0
KSDS 132350Z 23007KT 25/M04 A2998 RMK A01 T02451039  RH  015%=      5-min Rain = 0
KSDS 132355Z 23007KT 24/M03 A2998 RMK A01 T02391034  RH  016%=      5-min Rain = 0
KSDS 140000Z 23007KT 23/M03 A2998 RMK A01 T02311029  RH  018%=      5-min Rain = 0
KSDS 140005Z 24007KT 23/M03 A2998 RMK A01 T02251026  RH  019%=      5-min Rain = 0
KSDS 140010Z 24007KT 22/M02 A2998 RMK A01 T02161023  RH  020%=      5-min Rain = 0
KSDS 140015Z 24008KT 21/M02 A2998 RMK A01 T02101022  RH  021%=      5-min Rain = 0
KSDS 140020Z 24008KT 21/M02 A2998 RMK A01 T02061021  RH  022%=      5-min Rain = 0
KSDS 140025Z 25007KT 20/M02 A2998 RMK A01 T02011021  RH  023%=      5-min Rain = 0
KSDS 140030Z 26008KT 20/M02 A2998 RMK A01 T01961021  RH  023%=      5-min Rain = 0
KSDS 140035Z 26007KT 20/M02 A2998 RMK A01 T01951021  RH  023%=      5-min Rain = 0
KSDS 140040Z 26008KT 19/M02 A2998 RMK A01 T01911020  RH  024%=      5-min Rain = 0
KSDS 140045Z 26008KT 19/M02 A2998 RMK A01 T01891020  RH  024%=      5-min Rain = 0
KSDS 140050Z 26009KT 19/M02 A2998 RMK A01 T01851019  RH  025%=      5-min Rain = 0
KSDS 140055Z 26009KT 18/M02 A2999 RMK A01 T01771019  RH  027%=      5-min Rain = 0
KSDS 140100Z 26008KT 18/M02 A2999 RMK A01 T01751019  RH  027%=      5-min Rain = 0
KSDS 140105Z 26008KT 17/M02 A2999 RMK A01 T01741019  RH  027%=      5-min Rain = 0
KSDS 140110Z 26008KT 17/M02 A2999 RMK A01 T01701018  RH  028%=      5-min Rain = 0
KSDS 140115Z 26008KT 17/M02 A2999 RMK A01 T01691019  RH  028%=      5-min Rain = 0
KSDS 140120Z 26008KT 17/M02 A2999 RMK A01 T01711020  RH  027%=      5-min Rain = 0
KSDS 140125Z 26008KT 17/M02 A2999 RMK A01 T01721021  RH  027%=      5-min Rain = 0
KSDS 140130Z 26008KT 17/M02 A2999 RMK A01 T01701020  RH  027%=      5-min Rain = 0
KSDS 140135Z 27007KT 17/M02 A2999 RMK A01 T01671020  RH  028%=      5-min Rain = 0
KSDS 140140Z 27008KT 17/M02 A2999 RMK A01 T01661020  RH  028%=      5-min Rain = 0
KSDS 140145Z 26009KT 16/M02 A2999 RMK A01 T01591017  RH  030%=      5-min Rain = 0
KSDS 140150Z 26009KT 16/M02 A2999 RMK A01 T01551015  RH  031%=      5-min Rain = 0
KSDS 140155Z 26010KT 16/M02 A2999 RMK A01 T01551015  RH  031%=      5-min Rain = 0
KSDS 140200Z 26009KT 15/M02 A2999 RMK A01 T01541015  RH  032%=      5-min Rain = 0
KSDS 140205Z 26009KT 16/M02 A2999 RMK A01 T01591017  RH  030%=      5-min Rain = 0
KSDS 140210Z 26008KT 16/M02 A2999 RMK A01 T01631018  RH  029%=      5-min Rain = 0
KSDS 140215Z 26008KT 16/M02 A2999 RMK A01 T01641018  RH  029%=      5-min Rain = 0
KSDS 140220Z 26009KT 16/M02 A2999 RMK A01 T01641018  RH  029%=      5-min Rain = 0
KSDS 140225Z 26008KT 16/M02 A2999 RMK A01 T01621018  RH  029%=      5-min Rain = 0
KSDS 140230Z 26008KT 16/M02 A2999 RMK A01 T01581017  RH  030%=      5-min Rain = 0
KSDS 140235Z 25008KT 16/M02 A2999 RMK A01 T01571017  RH  031%=      5-min Rain = 0
KSDS 140240Z 25008KT 16/M02 A2999 RMK A01 T01571017  RH  031%=      5-min Rain = 0
KSDS 140245Z 25007KT 15/M02 A2999 RMK A01 T01541016  RH  031%=      5-min Rain = 0
KSDS 140250Z 25008KT 15/M01 A2999 RMK A01 T01481013  RH  033%=      5-min Rain = 0
KSDS 140255Z 25009KT 15/M01 A2999 RMK A01 T01461013  RH  034%=      5-min Rain = 0
KSDS 140300Z 24010KT 15/M01 A2999 RMK A01 T01451012  RH  034%=      5-min Rain = 0
KSDS 140305Z 24010KT 15/M01 A30 RMK A01 T01451011  RH  034%=      5-min Rain = 0
KSDS 140310Z 23010KT 15/M01 A30 RMK A01 T01481010  RH  034%=      5-min Rain = 0
KSDS 140315Z 21009KT 14/M01 A30 RMK A01 T01401006  RH  037%=      5-min Rain = 0
KSDS 140320Z 21009KT 14/M01 A30 RMK A01 T01361005  RH  038%=      5-min Rain = 0
KSDS 140325Z 21008KT 14/M00 A30 RMK A01 T01371004  RH  038%=      5-min Rain = 0
KSDS 140330Z 21008KT 13/M00 A30 RMK A01 T01331002  RH  040%=      5-min Rain = 0
KSDS 140335Z 21009KT 13/M00 A30 RMK A01 T01301001  RH  041%=      5-min Rain = 0
KSDS 140340Z 21009KT 13/00 A30 RMK A01 T01310001  RH  041%=      5-min Rain = 0
KSDS 140345Z 22008KT 13/00 A30 RMK A01 T01320002  RH  041%=      5-min Rain = 0
KSDS 140350Z 22009KT 14/00 A30 RMK A01 T01370002  RH  040%=      5-min Rain = 0
KSDS 140355Z 22008KT 14/00 A30 RMK A01 T01370003  RH  040%=      5-min Rain = 0
KSDS 140400Z 22010KT 14/00 A30 RMK A01 T01410002  RH  039%=      5-min Rain = 0
KSDS 140405Z 22009KT 14/00 A30 RMK A01 T01430001  RH  038%=      5-min Rain = 0
KSDS 140410Z 22010KT 14/00 A30 RMK A01 T01390002  RH  039%=      5-min Rain = 0
KSDS 140415Z 22009KT 14/00 A30 RMK A01 T014000-0  RH  039%=      5-min Rain = 0
KSDS 140420Z 23008KT 14/M00 A30 RMK A01 T01441003  RH  037%=      5-min Rain = 0
KSDS 140425Z 23008KT 14/M00 A30 RMK A01 T01431004  RH  037%=      5-min Rain = 0
KSDS 140430Z 23008KT 14/M00 A30 RMK A01 T01411003  RH  038%=      5-min Rain = 0
KSDS 140435Z 23008KT 14/M00 A30 RMK A01 T01411002  RH  038%=      5-min Rain = 0
KSDS 140440Z 23008KT 14/M00 A30 RMK A01 T01391001  RH  039%=      5-min Rain = 0
KSDS 140445Z 23008KT 14/00 A30 RMK A01 T01360001  RH  040%=      5-min Rain = 0
KSDS 140450Z 23008KT 14/00 A30 RMK A01 T01360002  RH  040%=      5-min Rain = 0
KSDS 140455Z 23007KT 13/01 A30 RMK A01 T01260005  RH  044%=      5-min Rain = 0

Page generated in 0.009 seconds.